Time;durP1;ratioP1;P1;durP2;ratioP2;P2;SDS_P1;SDS_P2;PMS_P1;PMS_P2;Temp;Humidity;BMP_temperature;BMP_pressure;BME280_temperature;BME280_humidity;BME280_pressure;Samples;Min_cycle;Max_cycle;Signal;HPM_P1;HPM_P2
2023/09/28 00:00:42;;;;;;;15.60;12.20;;;;;;;15.95;77.11;101099.59;7395978;19;20014;-71
2023/09/28 00:03:11;;;;;;;14.80;12.75;;;;;;;15.92;77.30;101094.38;7396946;19;20452;-72
2023/09/28 00:05:37;;;;;;;15.90;12.65;;;;;;;15.89;77.25;101105.09;7395396;19;20019;-70
2023/09/28 00:08:06;;;;;;;14.98;12.20;;;;;;;15.86;77.35;101099.91;7397297;19;20071;-69
2023/09/28 00:10:32;;;;;;;14.70;12.20;;;;;;;15.82;77.73;101093.88;7396696;19;20509;-70
2023/09/28 00:13:00;;;;;;;20.02;12.45;;;;;;;15.79;77.77;101105.41;7394861;19;20022;-70
2023/09/28 00:15:26;;;;;;;15.45;12.55;;;;;;;15.77;77.92;101101.09;7396122;19;20015;-71
2023/09/28 00:17:57;;;;;;;13.55;12.13;;;;;;;15.74;77.77;101096.78;7396962;19;20035;-70
2023/09/28 00:20:24;;;;;;;17.35;12.18;;;;;;;15.71;77.80;101091.63;7394794;19;20517;-71
2023/09/28 00:22:54;;;;;;;18.98;12.93;;;;;;;15.71;77.83;101093.38;7395796;19;20018;-72
2023/09/28 00:25:23;;;;;;;13.90;11.95;;;;;;;15.68;77.65;101096.16;7396586;19;20014;-70
2023/09/28 00:27:52;;;;;;;14.48;12.27;;;;;;;15.64;77.63;101101.56;7396514;19;20029;-72
2023/09/28 00:30:21;;;;;;;13.23;11.48;;;;;;;15.59;77.44;101103.50;7396091;19;20006;-70
2023/09/28 00:32:51;;;;;;;12.77;11.48;;;;;;;15.56;77.83;101095.69;7395984;19;20006;-70
2023/09/28 00:35:20;;;;;;;14.23;12.82;;;;;;;15.51;77.51;101096.81;7394104;19;20070;-70
2023/09/28 00:37:49;;;;;;;12.50;11.30;;;;;;;15.44;77.75;101094.38;7394589;19;20082;-70
2023/09/28 00:40:18;;;;;;;14.10;11.73;;;;;;;15.40;77.77;101098.03;7396116;19;20011;-70
2023/09/28 00:42:47;;;;;;;17.52;11.90;;;;;;;15.37;77.82;101098.16;7395298;19;20014;-70
2023/09/28 00:45:13;;;;;;;12.93;11.52;;;;;;;15.33;77.59;101091.25;7395421;19;20032;-70
2023/09/28 00:47:43;;;;;;;14.20;10.88;;;;;;;15.30;77.81;101094.88;7400939;19;20010;-71
2023/09/28 00:50:18;;;;;;;12.57;11.23;;;;;;;15.27;77.88;101102.03;7398684;19;20018;-71
2023/09/28 00:52:59;;;;;;;17.55;12.32;;;;;;;15.23;77.93;101095.16;7395668;19;20036;-71
2023/09/28 00:55:27;;;;;;;14.75;11.05;;;;;;;15.19;77.71;101098.78;7395890;19;20018;-70
2023/09/28 00:58:00;;;;;;;14.88;11.75;;;;;;;15.14;77.91;101091.91;7395679;19;20548;-71
2023/09/28 01:00:28;;;;;;;13.85;12.25;;;;;;;15.09;77.73;101085.91;7396262;19;20032;-71
2023/09/28 01:02:59;;;;;;;16.70;11.60;;;;;;;15.06;78.17;101086.00;7394705;19;20502;-71
2023/09/28 01:05:26;;;;;;;13.43;10.85;;;;;;;15.02;77.88;101097.63;7394122;19;20024;-70
2023/09/28 01:07:58;;;;;;;12.57;11.25;;;;;;;14.98;77.86;101094.22;7393724;19;20028;-70
2023/09/28 01:10:24;;;;;;;14.18;12.55;;;;;;;14.94;78.06;101095.25;7395736;19;20011;-70
2023/09/28 01:12:55;;;;;;;15.57;12.07;;;;;;;14.90;78.13;101084.81;7395480;19;20023;-70
2023/09/28 01:15:22;;;;;;;13.77;11.68;;;;;;;14.86;78.26;101093.78;7394578;19;20024;-70
2023/09/28 01:17:50;;;;;;;15.88;11.63;;;;;;;14.81;78.00;101092.16;7395182;19;20025;-70
2023/09/28 01:20:24;;;;;;;14.32;11.32;;;;;;;14.77;78.50;101095.81;7395042;19;20007;-71
2023/09/28 01:22:55;;;;;;;14.07;11.27;;;;;;;14.73;78.38;101091.53;7394199;19;20010;-71
2023/09/28 01:25:21;;;;;;;14.32;12.05;;;;;;;14.70;78.46;101085.50;7397109;19;20368;-71
2023/09/28 01:27:50;;;;;;;14.07;12.07;;;;;;;14.66;78.73;101090.03;7402146;19;20007;-70
2023/09/28 01:30:16;;;;;;;15.57;12.40;;;;;;;14.62;78.78;101081.31;7402111;19;20010;-70
2023/09/28 01:32:45;;;;;;;14.30;12.60;;;;;;;14.60;78.77;101082.28;7401757;19;20073;-70
2023/09/28 01:35:11;;;;;;;16.95;13.00;;;;;;;14.58;78.95;101079.66;7402308;19;20394;-71
2023/09/28 01:37:57;;;;;;;15.93;12.63;;;;;;;14.55;78.73;101077.16;7399336;19;20007;-71
2023/09/28 01:40:25;;;;;;;15.30;12.90;;;;;;;14.50;79.01;101071.16;7401761;19;20487;-71
2023/09/28 01:42:54;;;;;;;15.00;13.38;;;;;;;14.48;79.01;101071.22;7400893;19;20152;-70
2023/09/28 01:45:20;;;;;;;15.80;12.38;;;;;;;14.45;79.16;101068.66;7399193;19;20027;-70
2023/09/28 01:47:48;;;;;;;16.85;12.63;;;;;;;14.43;79.40;101070.50;7401841;19;20018;-70
2023/09/28 01:50:14;;;;;;;15.45;13.40;;;;;;;14.41;79.21;101067.03;7401938;19;20018;-70
2023/09/28 01:52:42;;;;;;;16.35;13.10;;;;;;;14.39;79.46;101066.22;7401210;19;20480;-69
2023/09/28 01:55:09;;;;;;;14.48;12.80;;;;;;;14.37;79.46;101065.44;7401247;19;20473;-71
2023/09/28 01:57:40;;;;;;;13.77;12.43;;;;;;;14.35;79.50;101061.97;7404627;19;20010;-71
2023/09/28 02:00:13;;;;;;;14.35;12.07;;;;;;;14.32;79.62;101059.44;7403329;19;20018;-71
2023/09/28 02:02:42;;;;;;;14.45;12.15;;;;;;;14.28;79.44;101058.66;7401338;19;20011;-70
2023/09/28 02:05:08;;;;;;;14.50;12.90;;;;;;;14.26;79.34;101059.63;7401027;19;20078;-71
2023/09/28 02:07:37;;;;;;;15.65;12.60;;;;;;;14.23;79.80;101054.44;7400815;19;20533;-70
2023/09/28 02:10:04;;;;;;;15.43;12.82;;;;;;;14.20;79.58;101060.66;7401139;19;20035;-70
2023/09/28 02:12:32;;;;;;;15.60;13.10;;;;;;;14.17;79.78;101058.16;7398279;19;20037;-70
2023/09/28 02:15:04;;;;;;;15.23;12.32;;;;;;;14.14;79.68;101051.19;7400603;19;20440;-70
2023/09/28 02:17:33;;;;;;;18.65;12.85;;;;;;;14.11;79.64;101058.34;7398897;19;20007;-70
2023/09/28 02:19:58;;;;;;;15.25;12.13;;;;;;;14.09;79.78;101053.13;7400420;19;20006;-70
2023/09/28 02:22:27;;;;;;;13.48;12.07;;;;;;;14.07;79.76;101051.44;7400171;19;20033;-71
2023/09/28 02:24:53;;;;;;;15.13;13.00;;;;;;;14.05;80.24;101054.09;7400710;19;20019;-69
2023/09/28 02:27:22;;;;;;;15.07;12.45;;;;;;;14.03;80.11;101042.75;7400228;19;20007;-70
2023/09/28 02:29:48;;;;;;;16.33;12.18;;;;;;;14.01;80.30;101047.19;7400429;19;20021;-70
2023/09/28 02:32:19;;;;;;;15.02;12.63;;;;;;;13.99;80.17;101047.25;7400387;19;20037;-70
2023/09/28 02:34:45;;;;;;;18.33;13.90;;;;;;;13.97;80.37;101041.16;7400669;19;20018;-71
2023/09/28 02:37:13;;;;;;;16.30;12.35;;;;;;;13.96;80.15;101042.09;7397277;19;20476;-71
2023/09/28 02:39:39;;;;;;;14.45;12.13;;;;;;;13.95;80.29;101043.00;7399989;19;20019;-70
2023/09/28 02:42:10;;;;;;;15.73;13.55;;;;;;;13.93;80.51;101036.88;7399382;19;20417;-71
2023/09/28 02:44:36;;;;;;;16.30;12.77;;;;;;;13.92;80.39;101044.84;7397450;19;20014;-70
2023/09/28 02:47:06;;;;;;;14.57;12.93;;;;;;;13.91;80.39;101040.50;7399559;19;20006;-71
2023/09/28 02:49:37;;;;;;;14.38;11.15;;;;;;;13.90;80.74;101038.75;7397399;19;20014;-70
2023/09/28 02:52:06;;;;;;;13.80;11.85;;;;;;;13.89;80.37;101039.66;7399497;19;20361;-71
2023/09/28 02:54:32;;;;;;;14.90;12.15;;;;;;;13.89;80.59;101039.66;7397177;19;20018;-70
2023/09/28 02:57:00;;;;;;;13.25;11.85;;;;;;;13.89;80.57;101042.28;7398045;19;20379;-70
2023/09/28 02:59:27;;;;;;;17.02;10.82;;;;;;;13.88;80.66;101044.09;7398794;19;20018;-71
2023/09/28 03:01:57;;;;;;;15.63;12.07;;;;;;;13.88;80.67;101041.44;7398997;19;20541;-69
2023/09/28 03:04:25;;;;;;;14.40;12.18;;;;;;;13.88;80.85;101044.09;7396908;19;20032;-70
2023/09/28 03:06:57;;;;;;;16.85;12.18;;;;;;;13.88;80.84;101045.88;7398947;19;20006;-70
2023/09/28 03:09:26;;;;;;;14.65;12.00;;;;;;;13.89;80.79;101044.94;7397206;19;20018;-69
2023/09/28 03:11:52;;;;;;;17.88;11.57;;;;;;;13.88;80.92;101041.44;7398803;19;20069;-69
2023/09/28 03:14:21;;;;;;;17.92;13.00;;;;;;;13.88;81.02;101043.22;7396524;19;20477;-69
2023/09/28 03:16:47;;;;;;;15.45;13.82;;;;;;;13.88;81.06;101044.09;7395843;19;20017;-69
2023/09/28 03:19:16;;;;;;;14.88;12.07;;;;;;;13.88;81.26;101037.97;7396099;19;20006;-70
2023/09/28 03:21:42;;;;;;;14.05;11.30;;;;;;;13.88;81.04;101043.22;7398655;19;20010;-70
2023/09/28 03:24:13;;;;;;;13.15;11.75;;;;;;;13.88;81.15;101043.22;7396609;19;20373;-71
2023/09/28 03:26:39;;;;;;;14.98;12.18;;;;;;;13.88;80.95;101049.34;7399293;19;20023;-70
2023/09/28 03:29:07;;;;;;;14.75;12.35;;;;;;;13.87;80.99;101042.34;7398545;19;20011;-71
2023/09/28 03:31:34;;;;;;;14.70;12.48;;;;;;;13.88;81.29;101049.34;7398379;19;20074;-70
2023/09/28 03:34:02;;;;;;;17.88;12.50;;;;;;;13.89;81.43;101034.38;7396547;19;20038;-70
2023/09/28 03:36:30;;;;;;;16.38;11.43;;;;;;;13.88;81.34;101038.81;7397120;19;20028;-69
2023/09/28 03:38:59;;;;;;;14.88;12.60;;;;;;;13.89;81.23;101044.94;7397357;19;20018;-70
2023/09/28 03:41:30;;;;;;;22.70;12.50;;;;;;;13.88;81.40;101038.81;7397875;19;20014;-71
2023/09/28 03:43:58;;;;;;;18.92;14.60;;;;;;;13.88;81.36;101041.44;7395299;19;20018;-69
2023/09/28 03:46:27;;;;;;;15.63;13.63;;;;;;;13.88;81.71;101049.34;7397809;19;20018;-69
2023/09/28 03:48:55;;;;;;;19.55;13.68;;;;;;;13.88;81.59;101044.09;7392834;19;20013;-69
2023/09/28 03:51:24;;;;;;;17.67;13.35;;;;;;;13.87;81.44;101046.78;7397675;19;20082;-69
2023/09/28 03:53:52;;;;;;;18.90;13.27;;;;;;;13.87;81.84;101050.25;7395840;19;20017;-69
2023/09/28 03:56:21;;;;;;;20.08;12.90;;;;;;;13.88;81.90;101065.19;7396460;19;20473;-69
2023/09/28 03:58:52;;;;;;;14.88;13.18;;;;;;;13.88;81.86;101067.81;7396806;19;20510;-69
2023/09/28 04:01:21;;;;;;;16.73;13.60;;;;;;;13.89;82.04;101063.41;7397586;19;20006;-69
2023/09/28 04:03:49;;;;;;;17.83;12.80;;;;;;;13.89;82.00;101064.28;7395645;19;20480;-70
2023/09/28 04:06:18;;;;;;;20.05;13.07;;;;;;;13.89;82.09;101061.66;7394877;19;20014;-69
2023/09/28 04:08:46;;;;;;;18.35;13.43;;;;;;;13.91;82.45;101058.94;7394264;19;20010;-70
2023/09/28 04:11:15;;;;;;;17.73;13.68;;;;;;;13.92;82.36;101055.41;7396203;19;20023;-68
2023/09/28 04:13:44;;;;;;;17.63;14.05;;;;;;;13.94;82.35;101058.84;7394698;19;20480;-70
2023/09/28 04:16:15;;;;;;;15.95;12.70;;;;;;;13.95;82.55;101053.53;7396148;19;20021;-70
2023/09/28 04:18:43;;;;;;;17.88;13.73;;;;;;;13.97;82.67;101061.41;7396801;19;20019;-70
2023/09/28 04:21:12;;;;;;;15.35;13.48;;;;;;;13.98;82.83;101056.06;7395262;19;20433;-70
2023/09/28 04:23:41;;;;;;;21.92;15.20;;;;;;;14.01;82.63;101060.38;7395513;19;20018;-69
2023/09/28 04:26:09;;;;;;;22.13;15.48;;;;;;;14.02;82.94;101051.56;7395919;19;20017;-69
2023/09/28 04:28:40;;;;;;;18.15;15.38;;;;;;;14.05;83.01;101061.16;7394983;19;20469;-69
2023/09/28 04:31:08;;;;;;;17.92;14.30;;;;;;;14.07;83.06;101062.84;7395633;19;20349;-70
2023/09/28 04:33:39;;;;;;;19.58;14.32;;;;;;;14.10;83.09;101053.97;7393863;19;20010;-70
2023/09/28 04:36:08;;;;;;;17.95;14.05;;;;;;;14.12;83.28;101065.34;7396123;19;20006;-70
2023/09/28 04:38:36;;;;;;;19.88;14.23;;;;;;;14.13;83.27;101061.81;7393307;19;20021;-70
2023/09/28 04:41:05;;;;;;;19.17;14.18;;;;;;;14.15;82.94;101059.97;7395756;19;20014;-70
2023/09/28 04:43:34;;;;;;;17.60;14.38;;;;;;;14.17;83.13;101060.78;7393960;19;20540;-70
2023/09/28 04:46:07;;;;;;;15.77;14.10;;;;;;;14.17;83.05;101061.63;7395020;19;20480;-70
2023/09/28 04:48:35;;;;;;;17.33;13.63;;;;;;;14.21;83.04;101064.19;7395148;19;20509;-70
2023/09/28 04:51:06;;;;;;;15.35;13.75;;;;;;;14.21;83.15;101067.69;7393110;19;20033;-71
2023/09/28 04:53:35;;;;;;;15.27;13.38;;;;;;;14.23;83.17;101070.25;7393428;19;20019;-69
2023/09/28 04:56:11;;;;;;;17.25;13.40;;;;;;;14.24;83.35;101072.00;7395057;19;20010;-70
2023/09/28 04:58:39;;;;;;;17.67;14.15;;;;;;;14.25;83.08;101079.84;7393217;19;20007;-69
2023/09/28 05:01:09;;;;;;;15.82;13.80;;;;;;;14.27;83.22;101077.19;7392496;19;20082;-68
2023/09/28 05:03:37;;;;;;;16.27;14.57;;;;;;;14.28;83.35;101085.06;7392997;19;20074;-69
2023/09/28 05:06:09;;;;;;;18.02;14.85;;;;;;;14.30;83.31;101080.56;7392248;19;20361;-69
2023/09/28 05:08:38;;;;;;;17.60;15.23;;;;;;;14.31;83.32;101079.66;7394491;19;20018;-70
2023/09/28 05:11:06;;;;;;;18.92;14.00;;;;;;;14.34;83.29;101079.59;7394785;19;20011;-70
2023/09/28 05:13:35;;;;;;;17.83;14.30;;;;;;;14.33;83.32;101085.78;7393629;19;20019;-70
2023/09/28 05:16:04;;;;;;;18.20;14.00;;;;;;;14.35;83.52;101083.06;7394381;19;20011;-70
2023/09/28 05:18:32;;;;;;;16.45;14.13;;;;;;;14.37;83.46;101089.19;7392982;19;20082;-70
2023/09/28 05:21:00;;;;;;;21.00;14.75;;;;;;;14.39;83.44;101083.84;7393998;19;20390;-71
2023/09/28 05:23:31;;;;;;;18.88;14.85;;;;;;;14.39;83.24;101087.34;7391970;19;20011;-69
2023/09/28 05:26:00;;;;;;;19.95;14.40;;;;;;;14.41;83.21;101082.88;7392997;19;20024;-70
2023/09/28 05:28:29;;;;;;;18.42;14.68;;;;;;;14.42;83.42;101087.25;7390432;19;20027;-70
2023/09/28 05:30:57;;;;;;;15.75;14.15;;;;;;;14.44;83.41;101088.03;7393605;19;20019;-71
2023/09/28 05:33:26;;;;;;;18.10;14.88;;;;;;;14.46;83.46;101088.03;7393125;19;20090;-70
2023/09/28 05:35:55;;;;;;;17.90;14.40;;;;;;;14.47;83.43;101095.88;7393671;19;20486;-70
2023/09/28 05:38:23;;;;;;;18.45;14.00;;;;;;;14.50;83.32;101087.00;7391946;19;20007;-70
2023/09/28 05:40:55;;;;;;;20.30;15.73;;;;;;;14.51;83.51;101088.72;7393365;19;20015;-70
2023/09/28 05:43:23;;;;;;;20.30;14.77;;;;;;;14.54;83.42;101088.63;7392796;19;20031;-69
2023/09/28 05:45:52;;;;;;;18.77;14.80;;;;;;;14.56;83.52;101086.81;7394114;19;20083;-70
2023/09/28 05:48:20;;;;;;;21.27;13.95;;;;;;;14.57;83.53;101080.63;7393996;19;20014;-70
2023/09/28 05:50:48;;;;;;;15.50;13.85;;;;;;;14.60;83.27;101082.28;7393060;19;20502;-70
2023/09/28 05:53:17;;;;;;;19.60;14.50;;;;;;;14.61;83.42;101097.22;7391049;19;20027;-69
2023/09/28 05:55:46;;;;;;;20.60;16.35;;;;;;;14.64;83.52;101095.34;7391439;19;20473;-69
2023/09/28 05:58:17;;;;;;;20.08;14.55;;;;;;;14.67;83.51;101091.75;7391778;19;20031;-70
2023/09/28 06:00:45;;;;;;;17.38;14.38;;;;;;;14.69;83.35;101099.63;7390854;19;20010;-69
2023/09/28 06:03:14;;;;;;;16.92;13.63;;;;;;;14.73;83.19;101106.53;7391927;19;20495;-69
2023/09/28 06:05:42;;;;;;;16.70;13.48;;;;;;;14.76;83.59;101107.31;7391402;19;20018;-69
2023/09/28 06:08:11;;;;;;;15.00;13.20;;;;;;;14.80;83.50;101102.78;7390975;19;20356;-69
2023/09/28 06:10:40;;;;;;;16.17;14.45;;;;;;;14.87;83.74;101114.00;7392809;19;20493;-69
2023/09/28 06:13:08;;;;;;;17.77;14.73;;;;;;;14.91;83.59;101103.28;7399440;19;20021;-69
2023/09/28 06:15:39;;;;;;;20.08;14.35;;;;;;;14.97;83.51;101113.66;7400512;19;20082;-70
2023/09/28 06:18:08;;;;;;;18.60;15.05;;;;;;;15.05;83.46;101123.06;7399241;19;20073;-70
2023/09/28 06:20:36;;;;;;;16.98;14.38;;;;;;;15.11;83.63;101115.81;7399855;19;20089;-69
2023/09/28 06:23:05;;;;;;;19.02;15.68;;;;;;;15.18;83.42;101116.44;7399027;19;20356;-70
2023/09/28 06:25:33;;;;;;;22.33;15.02;;;;;;;15.25;83.09;101112.69;7399104;19;20074;-70
2023/09/28 06:28:02;;;;;;;21.25;15.88;;;;;;;15.32;83.19;101115.97;7399711;19;20023;-69
2023/09/28 06:30:30;;;;;;;21.05;15.90;;;;;;;15.38;82.70;101112.22;7397412;19;20082;-69
2023/09/28 06:33:01;;;;;;;22.05;14.73;;;;;;;15.43;82.75;101111.16;7398618;19;20007;-70
2023/09/28 06:35:30;;;;;;;18.30;15.30;;;;;;;15.48;82.63;101111.00;7399662;19;20019;-70
2023/09/28 06:38:00;;;;;;;15.85;14.18;;;;;;;15.54;82.92;101117.81;7398264;19;20028;-69
2023/09/28 06:40:29;;;;;;;20.55;15.43;;;;;;;15.58;82.67;101117.66;7399756;19;20538;-69
2023/09/28 06:42:58;;;;;;;15.75;14.15;;;;;;;15.63;82.54;101120.13;7398658;19;20383;-69
2023/09/28 06:45:26;;;;;;;20.23;14.57;;;;;;;15.69;82.44;101126.97;7396899;19;20338;-69
2023/09/28 06:47:55;;;;;;;17.05;14.93;;;;;;;15.73;82.42;101128.59;7399698;19;20019;-68
2023/09/28 06:50:32;;;;;;;17.15;14.15;;;;;;;15.79;82.38;101128.34;7399101;19;20544;-68
2023/09/28 06:53:02;;;;;;;17.27;13.95;;;;;;;15.84;82.47;101129.06;7399175;19;20032;-70
2023/09/28 06:55:30;;;;;;;16.33;13.68;;;;;;;15.90;82.57;101133.28;7399672;19;20091;-69
2023/09/28 06:57:59;;;;;;;16.67;14.13;;;;;;;15.95;82.34;101126.03;7398723;19;20086;-70
2023/09/28 07:00:29;;;;;;;15.25;13.75;;;;;;;16.01;82.50;101136.41;7399108;19;20388;-68
2023/09/28 07:02:57;;;;;;;18.08;14.07;;;;;;;16.07;82.49;101133.47;7397456;19;20036;-69
2023/09/28 07:05:28;;;;;;;18.13;15.15;;;;;;;16.12;81.95;101125.38;7396372;19;20027;-69
2023/09/28 07:07:58;;;;;;;21.55;14.45;;;;;;;16.19;82.12;101128.63;7398982;19;20434;-70
2023/09/28 07:10:26;;;;;;;18.48;13.82;;;;;;;16.25;81.69;101134.56;7399674;19;20040;-70
2023/09/28 07:12:55;;;;;;;18.02;14.60;;;;;;;16.31;81.87;101138.75;7398019;19;20014;-70
2023/09/28 07:15:23;;;;;;;16.85;14.50;;;;;;;16.37;81.59;101138.50;7398002;19;20018;-71
2023/09/28 07:17:52;;;;;;;20.88;13.70;;;;;;;16.44;81.61;101144.41;7397325;19;20019;-69
2023/09/28 07:20:20;;;;;;;16.25;14.13;;;;;;;16.52;81.59;101152.06;7397769;19;20066;-68
2023/09/28 07:22:51;;;;;;;16.08;14.20;;;;;;;16.57;81.21;101144.81;7396834;19;20432;-69
2023/09/28 07:25:20;;;;;;;18.90;13.57;;;;;;;16.65;81.36;101149.78;7397770;19;20010;-69
2023/09/28 07:27:52;;;;;;;19.10;14.18;;;;;;;16.71;81.38;101153.03;7397385;19;20010;-69
2023/09/28 07:30:22;;;;;;;17.58;14.82;;;;;;;16.77;80.98;101155.44;7398454;19;20018;-70
2023/09/28 07:32:51;;;;;;;15.45;13.85;;;;;;;16.85;80.92;101157.78;7397338;19;20182;-68
2023/09/28 07:35:20;;;;;;;17.40;14.75;;;;;;;16.91;80.67;101160.19;7397580;19;20481;-69
2023/09/28 07:37:57;;;;;;;16.90;14.43;;;;;;;16.97;80.78;101164.38;7396706;19;20572;-69
2023/09/28 07:40:26;;;;;;;18.63;15.18;;;;;;;17.04;80.62;101163.19;7396114;19;20070;-69
2023/09/28 07:42:55;;;;;;;15.10;13.30;;;;;;;17.09;80.41;101161.22;7396765;19;20027;-69
2023/09/28 07:45:23;;;;;;;18.67;15.48;;;;;;;17.16;80.35;101167.13;7397760;19;20018;-69
2023/09/28 07:47:52;;;;;;;19.90;15.55;;;;;;;17.22;80.02;101166.00;7396857;19;20013;-69
2023/09/28 07:50:21;;;;;;;18.95;14.48;;;;;;;17.28;79.82;101164.88;7397184;19;20029;-69
2023/09/28 07:52:50;;;;;;;16.60;13.35;;;;;;;17.34;79.77;101168.13;7396201;19;20473;-69
2023/09/28 07:55:21;;;;;;;18.45;14.88;;;;;;;17.41;79.62;101169.59;7396709;19;20417;-68
2023/09/28 07:57:50;;;;;;;20.45;13.90;;;;;;;17.49;79.78;101169.25;7394248;19;20340;-69
2023/09/28 08:00:19;;;;;;;17.38;13.65;;;;;;;17.56;79.31;101172.47;7396482;19;20010;-68
2023/09/28 08:02:48;;;;;;;16.10;13.00;;;;;;;17.65;79.02;101176.53;7398684;19;20007;-69
2023/09/28 08:05:16;;;;;;;15.80;14.10;;;;;;;17.74;79.30;101170.78;7395612;19;20031;-70
2023/09/28 08:07:44;;;;;;;15.20;13.65;;;;;;;17.84;78.86;101163.28;7397051;19;20028;-70
2023/09/28 08:10:13;;;;;;;17.13;13.52;;;;;;;17.93;78.42;101168.16;7394888;19;20086;-70
2023/09/28 08:12:46;;;;;;;17.73;13.50;;;;;;;18.02;78.41;101166.91;7394525;19;20036;-70
2023/09/28 08:15:15;;;;;;;15.77;13.38;;;;;;;18.13;78.33;101171.72;7396431;19;20023;-69
2023/09/28 08:17:47;;;;;;;16.23;12.90;;;;;;;18.21;77.98;101175.75;7395449;19;20007;-69
2023/09/28 08:20:20;;;;;;;21.85;12.65;;;;;;;18.32;78.12;101169.06;7394316;19;20032;-69
2023/09/28 08:22:48;;;;;;;16.38;12.95;;;;;;;18.39;77.58;101158.06;7395205;19;20014;-70
2023/09/28 08:25:18;;;;;;;16.58;12.73;;;;;;;18.50;77.74;101164.66;7395644;19;20015;-69
2023/09/28 08:27:49;;;;;;;14.43;12.50;;;;;;;18.60;77.48;101167.72;7395694;19;20036;-70
2023/09/28 08:30:17;;;;;;;15.63;12.63;;;;;;;18.69;76.99;101161.97;7395136;19;20066;-69
2023/09/28 08:32:47;;;;;;;16.15;11.93;;;;;;;18.79;76.80;101154.41;7393461;19;20028;-69
2023/09/28 08:35:15;;;;;;;14.65;12.02;;;;;;;18.87;77.02;101153.06;7394623;19;20014;-69
2023/09/28 08:37:44;;;;;;;15.32;12.52;;;;;;;18.96;76.43;101154.44;7395402;19;20027;-69
2023/09/28 08:40:13;;;;;;;13.70;10.85;;;;;;;19.08;76.17;101162.75;7394785;19;20501;-69
2023/09/28 08:42:44;;;;;;;16.83;12.52;;;;;;;19.18;76.11;101172.84;7394504;19;20505;-69
2023/09/28 08:45:17;;;;;;;15.30;11.85;;;;;;;19.26;75.83;101176.88;7395678;19;20082;-68
2023/09/28 08:47:50;;;;;;;12.95;10.95;;;;;;;19.34;75.75;101175.56;7395897;19;20018;-68
2023/09/28 08:50:28;;;;;;;13.15;11.43;;;;;;;19.41;75.11;101175.25;7395790;19;20019;-69
2023/09/28 08:52:57;;;;;;;16.40;11.40;;;;;;;19.47;74.78;101178.44;7394563;19;20024;-68
2023/09/28 08:55:27;;;;;;;13.57;10.88;;;;;;;19.56;74.79;101173.59;7393623;19;20019;-68
2023/09/28 08:57:57;;;;;;;16.20;10.82;;;;;;;19.61;74.31;101175.03;7393935;19;20014;-70
2023/09/28 09:00:28;;;;;;;11.95;10.32;;;;;;;19.68;74.22;101176.44;7395113;19;20019;-69
2023/09/28 09:02:58;;;;;;;13.15;11.00;;;;;;;19.75;74.28;101177.00;7394920;19;20018;-67
2023/09/28 09:05:33;;;;;;;13.68;10.77;;;;;;;19.83;73.58;101174.81;7391429;19;20098;-66
2023/09/28 09:08:02;;;;;;;14.13;10.38;;;;;;;19.90;73.42;101185.97;7395364;19;20015;-67
2023/09/28 09:10:31;;;;;;;14.13;10.82;;;;;;;19.97;73.39;101183.84;7394905;19;20087;-67
2023/09/28 09:12:59;;;;;;;13.38;10.10;;;;;;;20.04;72.92;101181.72;7393535;19;20473;-68
2023/09/28 09:15:30;;;;;;;16.00;11.07;;;;;;;20.12;73.01;101176.81;7394350;19;20083;-67
2023/09/28 09:18:01;;;;;;;13.50;10.63;;;;;;;20.20;72.27;101185.25;7393256;19;20024;-68
2023/09/28 09:20:30;;;;;;;16.63;11.40;;;;;;;20.28;72.07;101185.69;7393930;19;20015;-69
2023/09/28 09:23:13;;;;;;;12.77;11.30;;;;;;;20.38;71.68;101185.16;7391949;19;20019;-67
2023/09/28 09:25:47;;;;;;;19.92;11.05;;;;;;;20.46;71.67;101178.47;7394732;19;20011;-67
2023/09/28 09:28:28;;;;;;;14.32;9.35;;;;;;;20.56;71.12;101194.81;7391682;19;20029;-67
2023/09/28 09:30:59;;;;;;;11.45;10.00;;;;;;;20.64;70.45;101197.88;7392189;19;20017;-67
2023/09/28 09:33:28;;;;;;;16.30;11.05;;;;;;;20.72;70.20;101196.63;7392859;19;20023;-66
2023/09/28 09:35:57;;;;;;;12.15;10.15;;;;;;;20.80;69.96;101194.34;7392765;19;20018;-66
2023/09/28 09:38:26;;;;;;;13.95;10.13;;;;;;;20.88;69.68;101200.13;7393444;19;20015;-67
2023/09/28 09:41:01;;;;;;;14.45;11.55;;;;;;;20.96;69.28;101191.66;7392467;19;20014;-67
2023/09/28 09:43:34;;;;;;;15.57;11.10;;;;;;;21.04;69.20;101193.88;7391842;19;20036;-68
2023/09/28 09:46:07;;;;;;;13.73;10.30;;;;;;;21.11;68.84;101184.56;7395424;19;20018;-67
2023/09/28 09:48:42;;;;;;;13.07;9.50;;;;;;;21.18;68.87;101191.28;7399104;19;20031;-68
2023/09/28 09:51:13;;;;;;;15.63;10.98;;;;;;;21.27;68.61;101188.03;7401304;19;20087;-67
2023/09/28 09:53:43;;;;;;;11.73;9.48;;;;;;;21.35;67.92;101184.06;7399489;19;20015;-66
2023/09/28 09:56:13;;;;;;;21.17;12.45;;;;;;;21.41;68.13;101173.03;7400590;19;20015;-67
2023/09/28 09:58:47;;;;;;;12.52;10.13;;;;;;;21.48;67.37;101177.00;7399213;19;20010;-67
2023/09/28 10:01:20;;;;;;;15.43;9.82;;;;;;;21.54;67.52;101176.66;7399886;19;20347;-68
2023/09/28 10:03:50;;;;;;;11.70;10.50;;;;;;;21.61;66.99;101175.34;7397694;19;20481;-67
2023/09/28 10:06:20;;;;;;;12.55;9.95;;;;;;;21.69;67.06;101179.38;7399066;19;20015;-68
2023/09/28 10:08:49;;;;;;;12.38;9.95;;;;;;;21.79;66.50;101175.16;7400491;19;20027;-67
2023/09/28 10:11:20;;;;;;;13.27;9.65;;;;;;;21.86;66.09;101180.97;7400211;19;20022;-67
2023/09/28 10:13:50;;;;;;;10.57;9.48;;;;;;;21.93;65.58;101172.47;7399178;19;20011;-67
2023/09/28 10:16:22;;;;;;;14.77;9.48;;;;;;;22.01;65.32;101176.50;7400700;19;20477;-69
2023/09/28 10:18:52;;;;;;;10.48;9.50;;;;;;;22.09;65.53;101182.19;7396487;19;20028;-68
2023/09/28 10:21:24;;;;;;;12.07;8.77;;;;;;;22.17;64.76;101185.25;7398773;19;20010;-68
2023/09/28 10:23:55;;;;;;;11.45;8.88;;;;;;;22.26;64.48;101192.66;7400438;19;20036;-67
2023/09/28 10:26:23;;;;;;;11.02;8.38;;;;;;;22.34;64.21;101188.66;7399776;19;20341;-69
2023/09/28 10:29:06;;;;;;;10.68;8.25;;;;;;;22.41;63.29;101196.19;7399523;19;20480;-69
2023/09/28 10:31:39;;;;;;;12.93;9.15;;;;;;;22.46;63.52;101203.94;7399753;19;20343;-69
2023/09/28 10:34:08;;;;;;;;;;;;;;;22.50;62.29;101201.94;7398832;19;20014;-68
2023/09/28 10:36:38;;;;;;;8.90;8.02;;;;;;;22.54;63.45;101193.59;7399340;19;19918;-76
2023/09/28 10:39:14;;;;;;;9.93;7.22;;;;;;;22.59;62.33;101194.13;7398696;19;20018;-76
2023/09/28 10:41:46;;;;;;;7.50;6.32;;;;;;;22.65;62.06;101192.06;7399228;19;20514;-69
2023/09/28 10:44:16;;;;;;;10.77;6.78;;;;;;;22.71;61.88;101188.94;7396845;19;20082;-69
2023/09/28 10:46:50;;;;;;;9.93;6.40;;;;;;;22.78;61.32;101196.47;7399569;19;20018;-69
2023/09/28 10:49:25;;;;;;;10.02;7.25;;;;;;;22.85;61.14;101182.69;7399749;19;20028;-69
2023/09/28 10:51:55;;;;;;;10.68;6.43;;;;;;;22.90;60.94;101197.47;7397209;19;20015;-70
2023/09/28 10:54:24;;;;;;;10.80;8.25;;;;;;;22.97;60.35;101203.25;7397064;19;20018;-68
2023/09/28 10:56:53;;;;;;;11.13;8.00;;;;;;;23.03;59.82;101202.00;7397880;19;20490;-68
2023/09/28 10:59:24;;;;;;;12.38;8.07;;;;;;;23.09;60.24;101204.28;7397699;19;20014;-70
2023/09/28 11:01:55;;;;;;;8.68;6.80;;;;;;;23.15;59.58;101203.00;7398708;19;20014;-68
2023/09/28 11:04:24;;;;;;;9.77;8.27;;;;;;;23.20;59.60;101184.81;7396461;19;20011;-69
2023/09/28 11:06:53;;;;;;;8.88;6.78;;;;;;;23.27;58.71;101186.13;7395990;19;20073;-70
2023/09/28 11:09:21;;;;;;;8.60;6.78;;;;;;;23.33;58.97;101192.88;7397409;19;20493;-69
2023/09/28 11:11:50;;;;;;;8.32;6.53;;;;;;;23.38;58.31;101194.28;7398075;19;20024;-70
2023/09/28 11:14:21;;;;;;;9.60;6.03;;;;;;;23.46;57.96;101184.88;7396271;19;20052;-69
2023/09/28 11:16:52;;;;;;;10.25;6.35;;;;;;;23.53;57.49;101175.44;7398571;19;20011;-70
2023/09/28 11:19:23;;;;;;;10.00;6.65;;;;;;;23.59;57.46;101183.03;7396245;19;20021;-69
2023/09/28 11:21:53;;;;;;;7.75;6.10;;;;;;;23.66;57.01;101189.69;7398091;19;20015;-71